createdAt,value
2023-07-02T00:00:10.017Z,100.00
2023-07-02T00:02:38.254Z,100.00
2023-07-02T00:05:06.515Z,100.00
2023-07-02T00:07:35.469Z,100.00
2023-07-02T00:10:02.658Z,100.00
2023-07-02T00:12:29.664Z,100.00
2023-07-02T00:14:56.728Z,100.00
2023-07-02T00:17:23.802Z,100.00
2023-07-02T00:19:53.498Z,100.00
2023-07-02T00:22:21.835Z,100.00
2023-07-02T00:24:49.135Z,100.00
2023-07-02T00:27:16.199Z,100.00
2023-07-02T00:29:43.363Z,100.00
2023-07-02T00:32:10.372Z,100.00
2023-07-02T00:34:37.610Z,100.00
2023-07-02T00:37:04.676Z,100.00
2023-07-02T00:39:32.026Z,100.00
2023-07-02T00:42:06.338Z,100.00
2023-07-02T00:44:33.516Z,100.00
2023-07-02T00:47:01.152Z,100.00
2023-07-02T00:49:28.606Z,100.00
2023-07-02T00:51:56.187Z,100.00
2023-07-02T00:54:23.386Z,100.00
2023-07-02T00:56:51.502Z,100.00
2023-07-02T00:59:18.537Z,100.00
2023-07-02T01:01:50.872Z,100.00
2023-07-02T01:04:20.833Z,100.00
2023-07-02T01:06:48.211Z,100.00
2023-07-02T01:09:15.370Z,100.00
2023-07-02T01:11:47.738Z,100.00
2023-07-02T01:14:27.484Z,100.00
2023-07-02T01:16:56.827Z,100.00
2023-07-02T01:19:41.695Z,100.00
2023-07-02T01:22:09.259Z,100.00
2023-07-02T01:24:38.029Z,100.00
2023-07-02T01:27:05.934Z,100.00
2023-07-02T01:29:33.116Z,100.00
2023-07-02T01:32:00.245Z,100.00
2023-07-02T01:34:27.411Z,100.00
2023-07-02T01:36:54.448Z,100.00
2023-07-02T01:39:21.496Z,100.00
2023-07-02T01:42:10.485Z,100.00
2023-07-02T01:44:38.196Z,100.00
2023-07-02T01:47:06.496Z,100.00
2023-07-02T01:49:33.695Z,100.00
2023-07-02T01:52:00.762Z,100.00
2023-07-02T01:54:29.591Z,100.00
2023-07-02T01:56:57.467Z,100.00
2023-07-02T01:59:24.858Z,100.00
2023-07-02T02:01:52.333Z,100.00
2023-07-02T02:04:19.504Z,100.00
2023-07-02T02:06:46.650Z,100.00
2023-07-02T02:09:13.634Z,100.00
2023-07-02T02:11:45.694Z,100.00
2023-07-02T02:14:12.928Z,100.00
2023-07-02T02:16:40.435Z,100.00
2023-07-02T02:19:07.808Z,100.00
2023-07-02T02:21:34.914Z,100.00
2023-07-02T02:24:01.992Z,100.00
2023-07-02T02:26:28.991Z,100.00
2023-07-02T02:28:56.020Z,100.00
2023-07-02T02:31:23.076Z,100.00
2023-07-02T02:33:50.360Z,100.00
2023-07-02T02:36:18.700Z,100.00
2023-07-02T02:38:45.959Z,100.00
2023-07-02T02:41:13.784Z,100.00
2023-07-02T02:43:45.847Z,100.00
2023-07-02T02:46:22.921Z,100.00
2023-07-02T02:48:50.770Z,100.00
2023-07-02T02:51:17.839Z,100.00
2023-07-02T02:53:44.831Z,100.00
2023-07-02T02:56:11.874Z,100.00
2023-07-02T02:58:38.944Z,100.00
2023-07-02T03:01:11.579Z,100.00
2023-07-02T03:03:46.419Z,100.00
2023-07-02T03:06:17.105Z,100.00
2023-07-02T03:08:44.307Z,100.00
2023-07-02T03:11:11.539Z,100.00
2023-07-02T03:13:39.009Z,100.00
2023-07-02T03:16:06.824Z,100.00
2023-07-02T03:18:34.879Z,100.00
2023-07-02T03:21:02.445Z,100.00
2023-07-02T03:23:29.482Z,100.00
2023-07-02T03:25:56.838Z,100.00
2023-07-02T03:28:23.847Z,100.00
2023-07-02T03:30:51.114Z,100.00
2023-07-02T03:33:18.643Z,100.00
2023-07-02T03:35:45.650Z,100.00
2023-07-02T03:38:12.731Z,100.00
2023-07-02T03:40:39.710Z,100.00
2023-07-02T03:43:08.320Z,100.00
2023-07-02T03:45:35.276Z,100.00
2023-07-02T03:48:02.344Z,100.00
2023-07-02T03:50:29.393Z,100.00
2023-07-02T03:52:56.366Z,100.00
2023-07-02T03:55:23.349Z,100.00
2023-07-02T03:57:50.349Z,100.00
2023-07-02T04:00:17.722Z,100.00
2023-07-02T04:02:44.907Z,100.00
2023-07-02T04:05:12.189Z,100.00
2023-07-02T04:07:39.252Z,100.00
2023-07-02T04:10:07.186Z,100.00
2023-07-02T04:12:34.284Z,100.00
2023-07-02T04:15:01.310Z,100.00
2023-07-02T04:17:28.381Z,100.00
2023-07-02T04:19:56.705Z,100.00
2023-07-02T04:22:23.682Z,100.00
2023-07-02T04:24:51.599Z,100.00
2023-07-02T04:27:45.918Z,100.00
2023-07-02T04:30:09.503Z,100.00
2023-07-02T04:32:37.400Z,100.00
2023-07-02T04:35:04.767Z,100.00
2023-07-02T04:37:31.737Z,100.00
2023-07-02T04:39:58.801Z,100.00
2023-07-02T04:42:35.992Z,100.00
2023-07-02T04:45:03.131Z,100.00
2023-07-02T04:47:31.285Z,100.00
2023-07-02T04:49:58.952Z,100.00
2023-07-02T04:52:26.229Z,100.00
2023-07-02T04:54:53.753Z,100.00
2023-07-02T04:57:20.828Z,100.00
2023-07-02T04:59:47.891Z,100.00
2023-07-02T05:02:14.886Z,100.00
2023-07-02T05:04:41.961Z,100.00
2023-07-02T05:07:09.233Z,100.00
2023-07-02T05:09:36.235Z,100.00
2023-07-02T05:12:03.354Z,100.00
2023-07-02T05:14:30.422Z,100.00
2023-07-02T05:16:57.509Z,100.00
2023-07-02T05:19:24.594Z,100.00
2023-07-02T05:21:51.575Z,100.00
2023-07-02T05:24:18.629Z,100.00
2023-07-02T05:26:45.649Z,100.00
2023-07-02T05:29:13.279Z,100.00
2023-07-02T05:31:40.407Z,100.00
2023-07-02T05:34:07.516Z,100.00
2023-07-02T05:36:35.678Z,100.00
2023-07-02T05:39:02.663Z,100.00
2023-07-02T05:41:31.640Z,100.00
2023-07-02T05:43:59.448Z,100.00
2023-07-02T05:46:26.731Z,100.00
2023-07-02T05:48:57.127Z,100.00
2023-07-02T05:51:25.159Z,100.00
2023-07-02T05:53:53.081Z,100.00
2023-07-02T05:56:20.322Z,100.00
2023-07-02T05:58:48.972Z,100.00
2023-07-02T06:01:16.243Z,100.00
2023-07-02T06:03:45.278Z,100.00
2023-07-02T06:06:13.055Z,100.00
2023-07-02T06:08:40.052Z,100.00
2023-07-02T06:11:07.144Z,100.00
2023-07-02T06:13:34.440Z,100.00
2023-07-02T06:16:01.516Z,100.00
2023-07-02T06:18:28.611Z,100.00
2023-07-02T06:20:55.759Z,100.00
2023-07-02T06:23:23.115Z,100.00
2023-07-02T06:25:52.843Z,100.00
2023-07-02T06:28:20.161Z,100.00
2023-07-02T06:30:47.588Z,100.00
2023-07-02T06:33:14.801Z,100.00
2023-07-02T06:35:41.792Z,100.00
2023-07-02T06:38:08.785Z,100.00
2023-07-02T06:40:36.174Z,100.00
2023-07-02T06:43:03.262Z,100.00
2023-07-02T06:45:30.274Z,100.00
2023-07-02T06:47:57.327Z,100.00
2023-07-02T06:50:24.869Z,100.00
2023-07-02T06:52:51.813Z,100.00
2023-07-02T06:55:18.813Z,100.00
2023-07-02T06:57:47.361Z,100.00
2023-07-02T07:00:15.494Z,100.00
2023-07-02T07:02:42.970Z,100.00
2023-07-02T07:05:10.811Z,100.00
2023-07-02T07:07:38.423Z,100.00
2023-07-02T07:10:06.493Z,100.00
2023-07-02T07:12:33.571Z,100.00
2023-07-02T07:15:00.725Z,100.00
2023-07-02T07:17:27.896Z,100.00
2023-07-02T07:19:54.925Z,100.00
2023-07-02T07:22:21.910Z,100.00
2023-07-02T07:24:50.056Z,100.00
2023-07-02T07:27:17.129Z,100.00
2023-07-02T07:29:44.135Z,100.00
2023-07-02T07:32:11.207Z,100.00
2023-07-02T07:34:38.174Z,100.00
2023-07-02T07:37:06.007Z,100.00
2023-07-02T07:39:33.109Z,100.00
2023-07-02T07:42:00.115Z,100.00
2023-07-02T07:44:30.328Z,100.00
2023-07-02T07:46:57.473Z,100.00
2023-07-02T07:49:25.802Z,100.00
2023-07-02T07:51:53.355Z,100.00
2023-07-02T07:54:20.476Z,100.00
2023-07-02T07:56:47.665Z,100.00
2023-07-02T07:59:15.866Z,100.00
2023-07-02T08:01:43.080Z,100.00
2023-07-02T08:04:10.350Z,100.00
2023-07-02T08:06:37.443Z,100.00
2023-07-02T08:09:04.785Z,100.00
2023-07-02T08:11:31.774Z,100.00
2023-07-02T08:13:59.089Z,100.00
2023-07-02T08:16:26.146Z,100.00
2023-07-02T08:18:53.176Z,100.00
2023-07-02T08:21:20.339Z,100.00
2023-07-02T08:23:47.352Z,100.00
2023-07-02T08:26:15.366Z,100.00
2023-07-02T08:28:42.497Z,100.00
2023-07-02T08:31:09.881Z,100.00
2023-07-02T08:33:36.921Z,100.00
2023-07-02T08:36:04.103Z,100.00
2023-07-02T08:38:31.121Z,100.00
2023-07-02T08:40:58.291Z,100.00
2023-07-02T08:43:28.423Z,100.00
2023-07-02T08:45:55.708Z,100.00
2023-07-02T08:48:25.348Z,100.00
2023-07-02T08:50:52.435Z,100.00
2023-07-02T08:53:20.567Z,100.00
2023-07-02T08:55:47.513Z,100.00
2023-07-02T08:58:15.933Z,100.00
2023-07-02T09:01:10.040Z,100.00
2023-07-02T09:03:38.451Z,100.00
2023-07-02T09:06:10.717Z,100.00
2023-07-02T09:08:39.539Z,100.00
2023-07-02T09:11:18.821Z,100.00
2023-07-02T09:14:00.060Z,100.00
2023-07-02T09:16:37.547Z,100.00
2023-07-02T09:19:09.796Z,100.00
2023-07-02T09:21:48.365Z,96.20
2023-07-02T09:24:25.661Z,100.00
2023-07-02T09:26:55.762Z,100.00
2023-07-02T09:29:25.503Z,99.38
2023-07-02T09:32:08.769Z,92.62
2023-07-02T09:34:39.109Z,100.00
2023-07-02T09:37:06.932Z,100.00
2023-07-02T09:39:36.977Z,98.93
2023-07-02T09:42:09.297Z,89.89
2023-07-02T09:44:37.184Z,93.37
2023-07-02T09:47:09.696Z,89.60
2023-07-02T09:49:43.470Z,87.82
2023-07-02T09:52:12.960Z,86.85
2023-07-02T09:54:40.074Z,86.56
2023-07-02T09:57:08.292Z,86.56
2023-07-02T09:59:36.045Z,84.41
2023-07-02T10:02:03.387Z,84.25
2023-07-02T10:04:45.641Z,85.20
2023-07-02T10:07:14.088Z,87.69
2023-07-02T10:09:44.694Z,85.77
2023-07-02T10:12:33.990Z,85.95
2023-07-02T10:15:01.300Z,85.42
2023-07-02T10:17:35.824Z,87.50
2023-07-02T10:20:08.800Z,80.63
2023-07-02T10:22:49.008Z,82.44
2023-07-02T10:25:38.730Z,84.06
2023-07-02T10:28:21.231Z,86.36
2023-07-02T10:30:48.560Z,79.59
2023-07-02T10:33:18.066Z,77.27
2023-07-02T10:35:51.128Z,84.47
2023-07-02T10:38:24.840Z,81.21
2023-07-02T10:41:04.267Z,79.36
2023-07-02T10:43:33.574Z,76.51
2023-07-02T10:46:02.593Z,79.09
2023-07-02T10:48:30.879Z,76.81
2023-07-02T10:50:58.242Z,77.08
2023-07-02T10:53:25.334Z,80.52
2023-07-02T10:56:00.385Z,75.50
2023-07-02T10:58:28.061Z,75.47
2023-07-02T11:00:55.301Z,71.86
2023-07-02T11:03:25.147Z,73.57
2023-07-02T11:05:53.677Z,72.04
2023-07-02T11:08:22.521Z,68.17
2023-07-02T11:11:07.779Z,70.34
2023-07-02T11:13:34.990Z,71.60
2023-07-02T11:16:02.309Z,70.15
2023-07-02T11:18:33.152Z,65.68
2023-07-02T11:21:11.641Z,68.54
2023-07-02T11:23:38.621Z,70.05
2023-07-02T11:26:05.637Z,72.65
2023-07-02T11:28:38.815Z,70.31
2023-07-02T11:31:08.634Z,69.21
2023-07-02T11:33:43.879Z,68.02
2023-07-02T11:37:10.185Z,65.10
2023-07-02T11:41:03.253Z,59.15
2023-07-02T11:58:09.618Z,61.01
2023-07-02T12:06:25.743Z,67.13
2023-07-02T12:09:12.735Z,60.97
2023-07-02T12:11:59.965Z,62.73
2023-07-02T12:14:27.403Z,63.01
2023-07-02T12:16:54.808Z,63.08
2023-07-02T12:19:26.610Z,59.86
2023-07-02T12:22:23.373Z,58.83
2023-07-02T12:25:42.492Z,54.04
2023-07-02T12:28:13.757Z,56.42
2023-07-02T12:30:42.607Z,57.71
2023-07-02T12:33:12.680Z,60.21
2023-07-02T12:36:20.396Z,58.38
2023-07-02T12:38:51.522Z,60.01
2023-07-02T12:41:19.104Z,59.68
2023-07-02T12:43:55.331Z,57.83
2023-07-02T12:46:23.319Z,55.91
2023-07-02T12:48:53.166Z,52.69
2023-07-02T12:51:40.923Z,55.40
2023-07-02T12:54:29.228Z,52.63
2023-07-02T12:56:58.886Z,52.01
2023-07-02T12:59:28.440Z,51.29
2023-07-02T13:02:00.377Z,50.01
2023-07-02T13:04:35.101Z,49.62
2023-07-02T13:07:07.019Z,50.06
2023-07-02T13:09:39.307Z,50.77
2023-07-02T13:12:23.287Z,50.88
2023-07-02T13:14:55.270Z,49.58
2023-07-02T13:17:27.354Z,48.32
2023-07-02T13:19:54.387Z,49.10
2023-07-02T13:22:22.748Z,49.07
2023-07-02T13:24:49.905Z,48.76
2023-07-02T13:27:18.904Z,48.38
2023-07-02T13:29:53.896Z,47.03
2023-07-02T13:32:25.914Z,46.01
2023-07-02T13:34:57.772Z,48.35
2023-07-02T13:37:35.040Z,47.46
2023-07-02T13:53:56.057Z,45.36
2023-07-02T13:59:33.711Z,44.78
2023-07-02T14:02:01.323Z,44.65
2023-07-02T14:04:28.432Z,45.56
2023-07-02T14:06:55.523Z,46.48
2023-07-02T14:09:22.604Z,47.20
2023-07-02T14:11:50.029Z,46.94
2023-07-02T14:14:17.139Z,46.79
2023-07-02T14:16:44.393Z,46.00
2023-07-02T14:19:11.579Z,47.13
2023-07-02T14:21:39.182Z,46.68
2023-07-02T14:24:06.620Z,46.03
2023-07-02T14:26:33.695Z,45.62
2023-07-02T14:29:00.679Z,45.77
2023-07-02T14:31:27.699Z,45.25
2023-07-02T14:33:54.993Z,45.39
2023-07-02T14:36:22.031Z,46.11
2023-07-02T14:38:49.144Z,46.47
2023-07-02T14:41:16.163Z,45.34
2023-07-02T14:43:43.251Z,45.76
2023-07-02T14:46:10.623Z,45.85
2023-07-02T14:48:37.766Z,46.73
2023-07-02T14:51:05.778Z,45.13
2023-07-02T14:53:35.069Z,45.80
2023-07-02T14:56:03.671Z,45.70
2023-07-02T14:58:32.035Z,45.46
2023-07-02T15:01:00.204Z,45.49
2023-07-02T15:03:29.920Z,45.65
2023-07-02T15:06:11.996Z,45.23
2023-07-02T15:08:39.645Z,45.23
2023-07-02T15:11:07.183Z,44.70
2023-07-02T15:13:34.468Z,44.35
2023-07-02T15:16:01.783Z,45.63
2023-07-02T15:18:29.038Z,45.71
2023-07-02T15:20:57.430Z,45.14
2023-07-02T15:23:26.467Z,44.91
2023-07-02T15:25:59.462Z,44.83
2023-07-02T15:28:28.034Z,44.08
2023-07-02T15:31:09.629Z,43.60
2023-07-02T15:33:36.867Z,43.90
2023-07-02T15:36:08.220Z,42.92
2023-07-02T15:38:35.262Z,43.41
2023-07-02T15:41:21.552Z,43.60
2023-07-02T15:43:49.046Z,43.72
2023-07-02T15:46:18.299Z,43.36
2023-07-02T15:48:45.774Z,44.37
2023-07-02T15:51:13.417Z,45.11
2023-07-02T15:53:43.219Z,44.18
2023-07-02T15:56:10.442Z,45.07
2023-07-02T15:58:37.539Z,46.82
2023-07-02T16:01:19.829Z,46.90
2023-07-02T16:03:47.005Z,44.81
2023-07-02T16:06:15.385Z,45.60
2023-07-02T16:08:43.990Z,45.21
2023-07-02T16:11:13.005Z,45.10
2023-07-02T16:13:42.613Z,44.34
2023-07-02T16:16:10.285Z,44.93
2023-07-02T16:18:37.335Z,44.71
2023-07-02T16:21:06.202Z,44.51
2023-07-02T16:23:34.131Z,45.09
2023-07-02T16:26:06.774Z,45.00
2023-07-02T16:28:36.655Z,45.04
2023-07-02T16:31:03.827Z,46.32
2023-07-02T16:33:34.465Z,45.69
2023-07-02T16:36:09.411Z,44.56
2023-07-02T16:38:37.420Z,44.83
2023-07-02T16:41:07.054Z,44.71
2023-07-02T16:43:35.206Z,43.65
2023-07-02T16:46:02.300Z,45.11
2023-07-02T16:48:29.333Z,43.51
2023-07-02T16:51:06.817Z,43.41
2023-07-02T16:53:35.098Z,44.23
2023-07-02T16:56:05.182Z,44.00
2023-07-02T16:58:33.527Z,43.68
2023-07-02T17:01:08.857Z,43.87
2023-07-02T17:03:36.617Z,43.13
2023-07-02T17:06:06.824Z,44.28
2023-07-02T17:08:43.934Z,44.60
2023-07-02T17:11:12.849Z,45.00
2023-07-02T17:13:40.137Z,44.13
2023-07-02T17:16:08.037Z,45.70
2023-07-02T17:18:35.696Z,44.68
2023-07-02T17:21:03.207Z,44.55
2023-07-02T17:27:33.209Z,44.74
2023-07-02T17:30:05.547Z,48.07
2023-07-02T17:32:32.957Z,45.01
2023-07-02T17:35:00.083Z,45.28
2023-07-02T17:37:27.362Z,45.16
2023-07-02T17:39:55.287Z,45.67
2023-07-02T17:42:22.619Z,45.91
2023-07-02T17:44:50.372Z,46.27
2023-07-02T17:47:19.051Z,45.38
2023-07-02T17:49:49.456Z,45.07
2023-07-02T17:52:21.821Z,45.81
2023-07-02T17:54:52.018Z,44.99
2023-07-02T17:57:19.953Z,46.36
2023-07-02T17:59:49.003Z,45.71
2023-07-02T18:02:18.102Z,45.52
2023-07-02T18:04:46.459Z,45.24
2023-07-02T18:07:21.662Z,45.04
2023-07-02T18:09:51.840Z,45.20
2023-07-02T18:12:24.269Z,44.73
2023-07-02T18:14:52.433Z,45.91
2023-07-02T18:17:19.984Z,45.76
2023-07-02T18:19:47.573Z,48.12
2023-07-02T18:22:14.938Z,47.28
2023-07-02T18:24:42.764Z,49.09
2023-07-02T18:27:11.105Z,47.76
2023-07-02T18:29:39.140Z,48.10
2023-07-02T18:32:08.206Z,46.99
2023-07-02T18:34:39.205Z,47.55
2023-07-02T18:37:08.132Z,46.87
2023-07-02T18:39:35.693Z,47.56
2023-07-02T18:42:06.631Z,46.56
2023-07-02T18:44:36.986Z,47.34
2023-07-02T18:47:10.779Z,50.36
2023-07-02T18:49:38.856Z,47.86
2023-07-02T18:52:14.866Z,48.48
2023-07-02T18:54:42.845Z,48.95
2023-07-02T18:57:12.271Z,48.25
2023-07-02T18:59:48.421Z,50.65
2023-07-02T19:02:17.471Z,50.22
2023-07-02T19:04:53.334Z,50.36
2023-07-02T19:07:22.474Z,50.05
2023-07-02T19:09:49.844Z,49.75
2023-07-02T19:12:17.052Z,50.40
2023-07-02T19:14:44.430Z,49.91
2023-07-02T19:17:13.107Z,50.60
2023-07-02T19:19:42.461Z,50.85
2023-07-02T19:22:17.188Z,52.12
2023-07-02T19:24:44.740Z,51.79
2023-07-02T19:27:15.509Z,51.59
2023-07-02T19:29:43.423Z,51.95
2023-07-02T19:32:10.644Z,50.74
2023-07-02T19:34:37.776Z,51.32
2023-07-02T19:37:07.361Z,50.54
2023-07-02T19:39:35.178Z,51.34
2023-07-02T19:42:02.513Z,52.96
2023-07-02T19:44:29.637Z,51.92
2023-07-02T19:46:56.808Z,51.86
2023-07-02T19:49:23.830Z,52.73
2023-07-02T19:51:51.963Z,53.61
2023-07-02T19:54:19.713Z,54.38
2023-07-02T19:56:49.427Z,54.98
2023-07-02T19:59:17.259Z,56.69
2023-07-02T20:01:45.589Z,56.96
2023-07-02T20:04:24.185Z,58.10
2023-07-02T20:06:54.836Z,56.72
2023-07-02T20:09:22.538Z,55.72
2023-07-02T20:11:49.679Z,55.19
2023-07-02T20:14:17.420Z,58.17
2023-07-02T20:16:51.742Z,60.59
2023-07-02T20:19:21.166Z,61.89
2023-07-02T20:21:48.280Z,61.96
2023-07-02T20:24:15.259Z,62.24
2023-07-02T20:26:42.338Z,63.55
2023-07-02T20:29:09.465Z,62.58
2023-07-02T20:31:36.647Z,63.38
2023-07-02T20:34:05.751Z,63.41
2023-07-02T20:36:36.366Z,63.00
2023-07-02T20:39:05.223Z,64.04
2023-07-02T20:41:37.124Z,64.54
2023-07-02T20:44:05.013Z,64.28
2023-07-02T20:46:33.558Z,63.49
2023-07-02T20:49:00.968Z,63.47
2023-07-02T20:51:30.717Z,63.13
2023-07-02T20:53:57.696Z,63.15
2023-07-02T20:56:24.971Z,62.20
2023-07-02T20:58:54.718Z,63.02
2023-07-02T21:01:22.116Z,61.73
2023-07-02T21:03:49.754Z,63.17
2023-07-02T21:06:16.784Z,62.38
2023-07-02T21:08:44.105Z,62.01
2023-07-02T21:11:24.186Z,62.83
2023-07-02T21:13:58.941Z,65.30
2023-07-02T21:16:26.107Z,62.82
2023-07-02T21:18:53.290Z,63.31
2023-07-02T21:21:45.656Z,64.33
2023-07-02T21:24:14.255Z,65.01
2023-07-02T21:26:41.355Z,64.95
2023-07-02T21:29:08.888Z,65.97
2023-07-02T21:31:36.193Z,66.47
2023-07-02T21:34:03.282Z,66.87
2023-07-02T21:36:31.562Z,67.54
2023-07-02T21:39:01.445Z,68.11
2023-07-02T21:41:29.166Z,68.70
2023-07-02T21:43:56.656Z,69.92
2023-07-02T21:46:23.673Z,70.50
2023-07-02T21:48:50.742Z,70.99
2023-07-02T21:51:18.985Z,71.26
2023-07-02T21:53:46.347Z,70.65
2023-07-02T21:56:13.337Z,70.25
2023-07-02T21:58:41.006Z,68.25
2023-07-02T22:01:08.164Z,70.31
2023-07-02T22:03:35.200Z,68.21
2023-07-02T22:06:02.239Z,67.56
2023-07-02T22:08:29.545Z,67.77
2023-07-02T22:11:05.780Z,67.38
2023-07-02T22:13:36.361Z,67.47
2023-07-02T22:16:03.419Z,68.90
2023-07-02T22:18:30.507Z,67.26
2023-07-02T22:20:57.546Z,69.38
2023-07-02T22:23:24.553Z,72.14
2023-07-02T22:25:51.738Z,74.82
2023-07-02T22:28:18.940Z,73.43
2023-07-02T22:30:45.926Z,74.28
2023-07-02T22:33:12.948Z,73.35
2023-07-02T22:35:39.929Z,75.77
2023-07-02T22:38:07.000Z,71.88
2023-07-02T22:40:33.960Z,74.00
2023-07-02T22:43:01.124Z,71.90
2023-07-02T22:45:29.067Z,71.22
2023-07-02T22:47:56.080Z,72.01
2023-07-02T22:50:23.463Z,71.32
2023-07-02T22:52:51.113Z,70.58
2023-07-02T22:55:18.261Z,70.41
2023-07-02T22:57:45.461Z,72.38
2023-07-02T23:00:17.206Z,71.23
2023-07-02T23:02:47.241Z,70.76
2023-07-02T23:05:18.906Z,72.04
2023-07-02T23:07:47.101Z,71.56
2023-07-02T23:10:16.921Z,74.06
2023-07-02T23:12:47.890Z,72.41
2023-07-02T23:15:17.072Z,71.72
2023-07-02T23:17:53.691Z,68.88
2023-07-02T23:20:21.405Z,69.67
2023-07-02T23:22:51.339Z,69.56
2023-07-02T23:25:24.005Z,68.35
2023-07-02T23:27:54.417Z,69.94
2023-07-02T23:30:28.117Z,70.18
2023-07-02T23:32:55.483Z,68.74
2023-07-02T23:35:22.699Z,69.31
2023-07-02T23:37:55.779Z,70.13
2023-07-02T23:40:24.553Z,67.77
2023-07-02T23:42:52.105Z,69.42
2023-07-02T23:45:19.341Z,67.51
2023-07-02T23:47:46.736Z,68.08
2023-07-02T23:50:17.785Z,68.72
2023-07-02T23:52:48.564Z,67.66
2023-07-02T23:55:18.440Z,70.91
2023-07-02T23:57:46.036Z,74.32
